Time,TemperatureF,DewpointF,PressureIn,WindDirection,WindDirectionDegrees,WindSpeedMPH,WindSpeedGustMPH,Humidity,HourlyPrecipIn,Conditions,Clouds,dailyrainin,SoftwareType,DateUTC
2013-04-15 00:00:00,43.0,-99.9,-100.00,WSW,247,4.0,11.0,-999,-99.99,,,-99.99,,2013-04-15 07:00:00,
2013-04-15 00:03:00,43.0,-99.9,-100.00,West,278,6.0,10.0,-999,-99.99,,,-99.99,,2013-04-15 07:03:00,
2013-04-15 00:43:00,43.0,-99.9,-100.00,West,265,5.0,11.0,-999,-99.99,,,-99.99,,2013-04-15 07:43:00,
2013-04-15 00:54:00,43.0,-99.9,-100.00,WSW,247,4.0,11.0,-999,-99.99,,,-99.99,,2013-04-15 07:54:00,
2013-04-15 01:00:00,42.0,-99.9,-100.00,NW,322,4.0,7.0,-999,-99.99,,,-99.99,,2013-04-15 08:00:00,
2013-04-15 01:35:00,42.0,-99.9,-100.00,NW,311,6.0,6.0,-999,-99.99,,,-99.99,,2013-04-15 08:35:00,
2013-04-15 01:43:00,42.0,-99.9,-100.00,NW,311,6.0,6.0,-999,-99.99,,,-99.99,,2013-04-15 08:43:00,
2013-04-15 01:52:00,42.0,-99.9,-100.00,NW,322,4.0,7.0,-999,-99.99,,,-99.99,,2013-04-15 08:52:00,
2013-04-15 02:33:00,40.0,-99.9,-100.00,West,275,6.0,10.0,-999,-99.99,,,-99.99,,2013-04-15 09:33:00,
2013-04-15 02:43:00,40.0,-99.9,-100.00,West,275,6.0,10.0,-999,-99.99,,,-99.99,,2013-04-15 09:43:00,
2013-04-15 02:53:00,40.0,-99.9,-100.00,West,275,6.0,10.0,-999,-99.99,,,-99.99,,2013-04-15 09:53:00,
2013-04-15 03:33:00,42.0,-99.9,-100.00,WSW,250,4.0,8.0,-999,-99.99,,,-99.99,,2013-04-15 10:33:00,
2013-04-15 03:42:00,42.0,-99.9,-100.00,WSW,250,4.0,8.0,-999,-99.99,,,-99.99,,2013-04-15 10:42:00,
2013-04-15 03:53:00,42.0,-99.9,-100.00,WSW,250,4.0,8.0,-999,-99.99,,,-99.99,,2013-04-15 10:53:00,
2013-04-15 04:03:00,42.0,-99.9,-100.00,SW,230,6.0,11.0,-999,-99.99,,,-99.99,,2013-04-15 11:03:00,
2013-04-15 04:13:00,42.0,-99.9,-100.00,SW,230,6.0,11.0,-999,-99.99,,,-99.99,,2013-04-15 11:13:00,
2013-04-15 04:23:00,42.0,-99.9,-100.00,West,276,3.0,10.0,-999,-99.99,,,-99.99,,2013-04-15 11:23:00,
2013-04-15 04:33:00,43.0,-99.9,-100.00,WNW,303,8.0,8.0,-999,-99.99,,,-99.99,,2013-04-15 11:33:00,
2013-04-15 04:44:00,43.0,-99.9,-100.00,WNW,303,8.0,8.0,-999,-99.99,,,-99.99,,2013-04-15 11:44:00,
2013-04-15 04:54:00,43.0,-99.9,-100.00,WNW,303,8.0,8.0,-999,-99.99,,,-99.99,,2013-04-15 11:54:00,
2013-04-15 05:35:00,41.0,-99.9,-100.00,NW,317,8.0,9.0,-999,-99.99,,,-99.99,,2013-04-15 12:35:00,
2013-04-15 05:43:00,41.0,-99.9,-100.00,NW,317,8.0,9.0,-999,-99.99,,,-99.99,,2013-04-15 12:43:00,
2013-04-15 05:54:00,41.0,-99.9,-100.00,NW,317,8.0,9.0,-999,-99.99,,,-99.99,,2013-04-15 12:54:00,
2013-04-15 06:20:00,40.0,-99.9,-100.00,WSW,238,5.0,7.0,-999,-99.99,,,-99.99,,2013-04-15 13:20:00,
2013-04-15 06:34:00,40.0,-99.9,-100.00,West,273,5.0,12.0,-999,-99.99,,,-99.99,,2013-04-15 13:34:00,
2013-04-15 06:43:00,40.0,-99.9,-100.00,West,273,5.0,12.0,-999,-99.99,,,-99.99,,2013-04-15 13:43:00,
2013-04-15 06:55:00,42.0,-99.9,-100.00,NW,314,2.0,8.0,-999,-99.99,,,-99.99,,2013-04-15 13:55:00,
2013-04-15 07:06:00,40.0,-99.9,-100.00,WSW,238,5.0,7.0,-999,-99.99,,,-99.99,,2013-04-15 14:06:00,
2013-04-15 07:14:00,40.0,-99.9,-100.00,WSW,238,5.0,7.0,-999,-99.99,,,-99.99,,2013-04-15 14:14:00,
2013-04-15 07:34:00,42.0,-99.9,-100.00,NW,314,2.0,8.0,-999,-99.99,,,-99.99,,2013-04-15 14:34:00,
2013-04-15 08:05:00,43.0,-99.9,-100.00,WSW,238,5.0,13.0,-999,-99.99,,,-99.99,,2013-04-15 15:05:00,
2013-04-15 08:37:00,43.0,-99.9,-100.00,WSW,245,6.0,13.0,-999,-99.99,,,-99.99,,2013-04-15 15:37:00,
2013-04-15 08:45:00,43.0,-99.9,-100.00,WSW,245,6.0,13.0,-999,-99.99,,,-99.99,,2013-04-15 15:45:00,
2013-04-15 08:55:00,43.0,-99.9,-100.00,WSW,238,5.0,13.0,-999,-99.99,,,-99.99,,2013-04-15 15:55:00,
2013-04-15 09:20:00,46.0,-99.9,-100.00,WSW,250,6.0,9.0,-999,-99.99,,,-99.99,,2013-04-15 16:20:00,
2013-04-15 09:34:00,44.0,-99.9,-100.00,West,260,10.0,12.0,-999,-99.99,,,-99.99,,2013-04-15 16:34:00,
2013-04-15 09:45:00,44.0,-99.9,-100.00,West,260,10.0,12.0,-999,-99.99,,,-99.99,,2013-04-15 16:45:00,
2013-04-15 09:55:00,44.0,-99.9,-100.00,West,260,10.0,12.0,-999,-99.99,,,-99.99,,2013-04-15 16:55:00,
2013-04-15 10:05:00,46.0,-99.9,-100.00,WSW,250,6.0,9.0,-999,-99.99,,,-99.99,,2013-04-15 17:05:00,
2013-04-15 10:33:00,47.0,-99.9,-100.00,WNW,292,5.0,9.0,-999,-99.99,,,-99.99,,2013-04-15 17:33:00,
2013-04-15 10:44:00,47.0,-99.9,-100.00,WNW,292,5.0,9.0,-999,-99.99,,,-99.99,,2013-04-15 17:44:00,
2013-04-15 10:53:00,47.0,-99.9,-100.00,WNW,292,5.0,9.0,-999,-99.99,,,-99.99,,2013-04-15 17:53:00,
2013-04-15 11:33:00,48.0,-99.9,-100.00,NE,44,3.0,4.0,-999,-99.99,,,-99.99,,2013-04-15 18:33:00,
2013-04-15 11:42:00,48.0,-99.9,-100.00,NE,44,3.0,4.0,-999,-99.99,,,-99.99,,2013-04-15 18:42:00,
2013-04-15 11:52:00,48.0,-99.9,-100.00,NE,44,3.0,4.0,-999,-99.99,,,-99.99,,2013-04-15 18:52:00,
2013-04-15 12:00:00,51.0,-99.9,-100.00,NE,53,4.0,6.0,-999,-99.99,,,-99.99,,2013-04-15 19:00:00,
2013-04-15 12:40:00,51.0,-99.9,-100.00,NE,53,4.0,6.0,-999,-99.99,,,-99.99,,2013-04-15 19:40:00,
2013-04-15 12:59:00,51.0,-99.9,-100.00,NE,53,4.0,6.0,-999,-99.99,,,-99.99,,2013-04-15 19:59:00,
2013-04-15 13:32:00,49.0,-99.9,-100.00,South,176,0.0,3.0,-999,-99.99,,,-99.99,,2013-04-15 20:32:00,
2013-04-15 13:42:00,49.0,-99.9,-100.00,South,176,0.0,3.0,-999,-99.99,,,-99.99,,2013-04-15 20:42:00,
2013-04-15 13:52:00,51.0,-99.9,-100.00,SE,125,1.0,3.0,-999,-99.99,,,-99.99,,2013-04-15 20:52:00,
2013-04-15 14:02:00,51.0,-99.9,-100.00,SE,125,1.0,3.0,-999,-99.99,,,-99.99,,2013-04-15 21:02:00,
2013-04-15 14:22:00,50.0,-99.9,-100.00,WSW,241,8.0,11.0,-999,-99.99,,,-99.99,,2013-04-15 21:22:00,
2013-04-15 14:33:00,40.0,-99.9,-100.00,NNW,329,3.0,5.0,-999,-99.99,,,-99.99,,2013-04-15 21:33:00,
2013-04-15 15:00:00,49.0,-99.9,-100.00,West,276,5.0,5.0,-999,-99.99,,,-99.99,,2013-04-15 22:00:00,
2013-04-15 15:23:00,48.0,-99.9,-100.00,WSW,247,5.0,8.0,-999,-99.99,,,-99.99,,2013-04-15 22:23:00,
2013-04-15 15:33:00,48.0,-99.9,-100.00,NNW,348,4.0,11.0,-999,-99.99,,,-99.99,,2013-04-15 22:33:00,
2013-04-15 15:42:00,48.0,-99.9,-100.00,NNW,348,4.0,11.0,-999,-99.99,,,-99.99,,2013-04-15 22:42:00,
2013-04-15 15:52:00,49.0,-99.9,-100.00,West,276,5.0,5.0,-999,-99.99,,,-99.99,,2013-04-15 22:52:00,
2013-04-15 16:22:00,50.0,-99.9,-100.00,NNW,327,4.0,6.0,-999,-99.99,,,-99.99,,2013-04-15 23:22:00,
2013-04-15 16:32:00,51.0,-99.9,-100.00,NNE,28,0.0,2.0,-999,-99.99,,,-99.99,,2013-04-15 23:32:00,
2013-04-15 16:42:00,51.0,-99.9,-100.00,NNE,28,0.0,2.0,-999,-99.99,,,-99.99,,2013-04-15 23:42:00,
2013-04-15 16:52:00,51.0,-99.9,-100.00,NNE,28,0.0,2.0,-999,-99.99,,,-99.99,,2013-04-15 23:52:00,
2013-04-15 17:03:00,51.0,-99.9,-100.00,NW,320,2.0,4.0,-999,-99.99,,,-99.99,,2013-04-16 00:03:00,
2013-04-15 17:12:00,51.0,-99.9,-100.00,NW,320,2.0,4.0,-999,-99.99,,,-99.99,,2013-04-16 00:12:00,
2013-04-15 18:00:00,48.0,-99.9,-100.00,NNW,340,1.0,3.0,-999,-99.99,,,-99.99,,2013-04-16 01:00:00,
2013-04-15 18:32:00,48.0,-99.9,-100.00,NNW,340,1.0,3.0,-999,-99.99,,,-99.99,,2013-04-16 01:32:00,
2013-04-15 18:42:00,48.0,-99.9,-100.00,NNW,340,1.0,3.0,-999,-99.99,,,-99.99,,2013-04-16 01:42:00,
2013-04-15 18:52:00,48.0,-99.9,-100.00,NNW,340,1.0,3.0,-999,-99.99,,,-99.99,,2013-04-16 01:52:00,
2013-04-15 19:20:00,46.0,-99.9,-100.00,NW,310,1.0,2.0,-999,-99.99,,,-99.99,,2013-04-16 02:20:00,
2013-04-15 19:22:00,47.0,-99.9,-100.00,West,281,0.0,2.0,-999,-99.99,,,-99.99,,2013-04-16 02:22:00,
2013-04-15 19:32:00,49.0,-99.9,-100.00,SSE,162,1.0,1.0,-999,-99.99,,,-99.99,,2013-04-16 02:32:00,
2013-04-15 19:42:00,49.0,-99.9,-100.00,SSE,162,1.0,1.0,-999,-99.99,,,-99.99,,2013-04-16 02:42:00,
2013-04-15 19:52:00,49.0,-99.9,-100.00,SSE,162,1.0,1.0,-999,-99.99,,,-99.99,,2013-04-16 02:52:00,
2013-04-15 20:00:00,47.0,-99.9,-100.00,SW,217,2.0,3.0,-999,-99.99,,,-99.99,,2013-04-16 03:00:00,
2013-04-15 20:02:00,46.0,-99.9,-100.00,NW,310,1.0,2.0,-999,-99.99,,,-99.99,,2013-04-16 03:02:00,
2013-04-15 20:12:00,46.0,-99.9,-100.00,NW,310,1.0,2.0,-999,-99.99,,,-99.99,,2013-04-16 03:12:00,
2013-04-15 20:33:00,45.0,-99.9,-100.00,SW,236,1.0,3.0,-999,-99.99,,,-99.99,,2013-04-16 03:33:00,
2013-04-15 20:43:00,45.0,-99.9,-100.00,SW,236,1.0,3.0,-999,-99.99,,,-99.99,,2013-04-16 03:43:00,
2013-04-15 20:53:00,47.0,-99.9,-100.00,SW,217,2.0,3.0,-999,-99.99,,,-99.99,,2013-04-16 03:53:00,
2013-04-15 21:00:00,44.0,-99.9,-100.00,WSW,238,3.0,4.0,-999,-99.99,,,-99.99,,2013-04-16 04:00:00,
2013-04-15 21:23:00,44.0,-99.9,-100.00,South,172,2.0,4.0,-999,-99.99,,,-99.99,,2013-04-16 04:23:00,
2013-04-15 21:33:00,44.0,-99.9,-100.00,WSW,238,3.0,4.0,-999,-99.99,,,-99.99,,2013-04-16 04:33:00,
2013-04-15 21:42:00,44.0,-99.9,-100.00,WSW,238,3.0,4.0,-999,-99.99,,,-99.99,,2013-04-16 04:42:00,
2013-04-15 21:53:00,44.0,-99.9,-100.00,WSW,238,3.0,4.0,-999,-99.99,,,-99.99,,2013-04-16 04:53:00,
2013-04-15 22:00:00,42.0,-99.9,-100.00,WSW,253,2.0,4.0,-999,-99.99,,,-99.99,,2013-04-16 05:00:00,
2013-04-15 22:32:00,42.0,-99.9,-100.00,WSW,253,2.0,4.0,-999,-99.99,,,-99.99,,2013-04-16 05:32:00,
2013-04-15 22:43:00,42.0,-99.9,-100.00,WSW,253,2.0,4.0,-999,-99.99,,,-99.99,,2013-04-16 05:43:00,
2013-04-15 22:52:00,42.0,-99.9,-100.00,WSW,253,2.0,4.0,-999,-99.99,,,-99.99,,2013-04-16 05:52:00,
2013-04-15 23:00:00,42.0,-99.9,-100.00,SW,221,6.0,7.0,-999,-99.99,,,-99.99,,2013-04-16 06:00:00,
2013-04-15 23:32:00,42.0,-99.9,-100.00,SW,221,6.0,7.0,-999,-99.99,,,-99.99,,2013-04-16 06:32:00,
2013-04-15 23:42:00,42.0,-99.9,-100.00,SW,221,6.0,7.0,-999,-99.99,,,-99.99,,2013-04-16 06:42:00,
2013-04-15 23:52:00,42.0,-99.9,-100.00,SW,221,6.0,7.0,-999,-99.99,,,-99.99,,2013-04-16 06:52:00,